sensor_id;sensor_type;location;lat;lon;timestamp;pressure;altitude;pressure_sealevel;temperature;humidity
9091;BME280;4581;42.416;25.598;2022-08-21T00:01:51;97727.75;;;22.78;90.20
9091;BME280;4581;42.416;25.598;2022-08-21T00:04:18;97718.91;;;22.71;87.99
9091;BME280;4581;42.416;25.598;2022-08-21T00:06:49;97700.75;;;22.65;88.30
9091;BME280;4581;42.416;25.598;2022-08-21T00:09:17;97673.81;;;22.52;87.65
9091;BME280;4581;42.416;25.598;2022-08-21T00:11:47;97675.72;;;22.51;86.99
9091;BME280;4581;42.416;25.598;2022-08-21T00:14:17;97690.28;;;22.67;87.69
9091;BME280;4581;42.416;25.598;2022-08-21T00:16:44;97678.22;;;22.63;86.50
9091;BME280;4581;42.416;25.598;2022-08-21T00:19:13;97687.06;;;22.70;85.60
9091;BME280;4581;42.416;25.598;2022-08-21T00:21:40;97670.84;;;22.68;85.61
9091;BME280;4581;42.416;25.598;2022-08-21T00:24:10;97682.66;;;22.79;86.24
9091;BME280;4581;42.416;25.598;2022-08-21T00:26:37;97692.00;;;22.78;86.69
9091;BME280;4581;42.416;25.598;2022-08-21T00:29:03;97650.72;;;22.53;86.60
9091;BME280;4581;42.416;25.598;2022-08-21T00:31:30;97660.91;;;22.52;85.04
9091;BME280;4581;42.416;25.598;2022-08-21T00:33:57;97694.47;;;22.84;87.00
9091;BME280;4581;42.416;25.598;2022-08-21T00:36:27;97681.56;;;22.70;86.73
9091;BME280;4581;42.416;25.598;2022-08-21T00:38:55;97685.13;;;22.70;87.93
9091;BME280;4581;42.416;25.598;2022-08-21T00:41:23;97704.66;;;22.74;86.97
9091;BME280;4581;42.416;25.598;2022-08-21T00:44:06;97713.72;;;22.74;87.25
9091;BME280;4581;42.416;25.598;2022-08-21T00:46:33;97699.97;;;22.69;89.19
9091;BME280;4581;42.416;25.598;2022-08-21T00:49:00;97701.34;;;22.72;89.13
9091;BME280;4581;42.416;25.598;2022-08-21T00:51:36;97726.09;;;22.97;89.25
9091;BME280;4581;42.416;25.598;2022-08-21T00:54:05;97723.91;;;23.04;87.98
9091;BME280;4581;42.416;25.598;2022-08-21T00:56:42;97694.75;;;22.93;86.93
9091;BME280;4581;42.416;25.598;2022-08-21T00:59:12;97696.69;;;22.98;84.92
9091;BME280;4581;42.416;25.598;2022-08-21T01:01:42;97694.47;;;23.05;85.31
9091;BME280;4581;42.416;25.598;2022-08-21T01:04:09;97703.28;;;23.27;86.23
9091;BME280;4581;42.416;25.598;2022-08-21T01:06:35;97673.84;;;23.17;84.93
9091;BME280;4581;42.416;25.598;2022-08-21T01:09:02;97696.09;;;23.36;84.71
9091;BME280;4581;42.416;25.598;2022-08-21T01:11:30;97672.72;;;23.23;83.62
9091;BME280;4581;42.416;25.598;2022-08-21T01:13:57;97689.47;;;23.42;84.18
9091;BME280;4581;42.416;25.598;2022-08-21T01:16:25;97664.72;;;23.32;85.75
9091;BME280;4581;42.416;25.598;2022-08-21T01:18:55;97695.81;;;23.53;83.72
9091;BME280;4581;42.416;25.598;2022-08-21T01:21:26;97690.00;;;23.59;83.38
9091;BME280;4581;42.416;25.598;2022-08-21T01:23:56;97637.75;;;23.44;81.98
9091;BME280;4581;42.416;25.598;2022-08-21T01:26:29;97644.28;;;23.63;82.17
9091;BME280;4581;42.416;25.598;2022-08-21T01:31:36;97583.91;;;23.13;87.18
9091;BME280;4581;42.416;25.598;2022-08-21T01:34:12;97612.25;;;23.03;89.77
9091;BME280;4581;42.416;25.598;2022-08-21T01:36:40;97590.03;;;22.74;90.36
9091;BME280;4581;42.416;25.598;2022-08-21T01:39:06;97595.78;;;22.63;90.63
9091;BME280;4581;42.416;25.598;2022-08-21T01:41:36;97582.06;;;22.43;90.88
9091;BME280;4581;42.416;25.598;2022-08-21T01:44:04;97558.41;;;22.21;92.04
9091;BME280;4581;42.416;25.598;2022-08-21T01:46:31;97594.69;;;22.44;93.51
9091;BME280;4581;42.416;25.598;2022-08-21T01:48:58;97571.03;;;22.27;93.20
9091;BME280;4581;42.416;25.598;2022-08-21T01:51:25;97566.66;;;22.26;93.11
9091;BME280;4581;42.416;25.598;2022-08-21T01:53:51;97570.22;;;22.22;94.97
9091;BME280;4581;42.416;25.598;2022-08-21T01:56:18;97566.66;;;22.06;95.95
9091;BME280;4581;42.416;25.598;2022-08-21T01:58:47;97605.63;;;21.98;99.34
9091;BME280;4581;42.416;25.598;2022-08-21T02:01:14;97602.78;;;21.83;100.00
9091;BME280;4581;42.416;25.598;2022-08-21T02:03:43;97600.25;;;21.61;99.41
9091;BME280;4581;42.416;25.598;2022-08-21T02:06:15;97621.91;;;21.63;99.58
9091;BME280;4581;42.416;25.598;2022-08-21T02:08:45;97626.09;;;21.70;100.00
9091;BME280;4581;42.416;25.598;2022-08-21T02:11:12;97601.84;;;21.47;100.00
9091;BME280;4581;42.416;25.598;2022-08-21T02:13:40;97623.25;;;21.50;100.00
9091;BME280;4581;42.416;25.598;2022-08-21T02:16:07;97642.38;;;21.35;100.00
9091;BME280;4581;42.416;25.598;2022-08-21T02:18:35;97615.94;;;21.19;100.00
9091;BME280;4581;42.416;25.598;2022-08-21T02:21:03;97613.38;;;21.07;100.00
9091;BME280;4581;42.416;25.598;2022-08-21T02:23:33;97630.66;;;21.08;100.00
9091;BME280;4581;42.416;25.598;2022-08-21T02:26:03;97663.44;;;21.24;100.00
9091;BME280;4581;42.416;25.598;2022-08-21T02:28:34;97660.94;;;21.18;100.00
9091;BME280;4581;42.416;25.598;2022-08-21T02:31:01;97670.00;;;21.23;100.00
9091;BME280;4581;42.416;25.598;2022-08-21T02:33:29;97658.06;;;21.08;100.00
9091;BME280;4581;42.416;25.598;2022-08-21T02:35:57;97665.53;;;21.12;100.00
9091;BME280;4581;42.416;25.598;2022-08-21T02:38:28;97661.66;;;21.08;100.00
9091;BME280;4581;42.416;25.598;2022-08-21T02:40:57;97660.47;;;20.99;100.00
9091;BME280;4581;42.416;25.598;2022-08-21T02:43:31;97639.03;;;20.86;100.00
9091;BME280;4581;42.416;25.598;2022-08-21T02:45:58;97661.31;;;20.99;100.00
9091;BME280;4581;42.416;25.598;2022-08-21T02:48:29;97658.84;;;20.98;100.00
9091;BME280;4581;42.416;25.598;2022-08-21T02:50:58;97661.53;;;20.93;100.00
9091;BME280;4581;42.416;25.598;2022-08-21T02:53:26;97670.66;;;21.03;100.00
9091;BME280;4581;42.416;25.598;2022-08-21T02:55:59;97670.06;;;20.96;100.00
9091;BME280;4581;42.416;25.598;2022-08-21T02:58:31;97668.69;;;20.99;100.00
9091;BME280;4581;42.416;25.598;2022-08-21T03:00:58;97659.88;;;20.92;100.00
9091;BME280;4581;42.416;25.598;2022-08-21T03:03:26;97681.38;;;21.05;100.00
9091;BME280;4581;42.416;25.598;2022-08-21T03:05:55;97657.56;;;20.74;100.00
9091;BME280;4581;42.416;25.598;2022-08-21T03:08:23;97652.69;;;20.81;100.00
9091;BME280;4581;42.416;25.598;2022-08-21T03:10:56;97665.31;;;20.82;100.00
9091;BME280;4581;42.416;25.598;2022-08-21T03:13:23;97690.28;;;20.90;100.00
9091;BME280;4581;42.416;25.598;2022-08-21T03:15:51;97657.75;;;20.67;100.00
9091;BME280;4581;42.416;25.598;2022-08-21T03:18:18;97693.31;;;20.89;100.00
9091;BME280;4581;42.416;25.598;2022-08-21T03:20:45;97698.50;;;20.90;100.00
9091;BME280;4581;42.416;25.598;2022-08-21T03:23:14;97698.50;;;20.90;100.00
9091;BME280;4581;42.416;25.598;2022-08-21T03:25:46;97684.69;;;20.75;100.00
9091;BME280;4581;42.416;25.598;2022-08-21T03:28:16;97713.88;;;20.91;100.00
9091;BME280;4581;42.416;25.598;2022-08-21T03:30:47;97715.56;;;20.97;100.00
9091;BME280;4581;42.416;25.598;2022-08-21T03:33:15;97703.13;;;20.85;100.00
9091;BME280;4581;42.416;25.598;2022-08-21T03:35:52;97713.56;;;20.88;100.00
9091;BME280;4581;42.416;25.598;2022-08-21T03:38:22;97730.91;;;20.98;100.00
9091;BME280;4581;42.416;25.598;2022-08-21T03:40:52;97734.53;;;21.04;100.00
9091;BME280;4581;42.416;25.598;2022-08-21T03:43:19;97694.50;;;20.71;100.00
9091;BME280;4581;42.416;25.598;2022-08-21T03:45:46;97742.34;;;20.90;100.00
9091;BME280;4581;42.416;25.598;2022-08-21T03:48:18;97752.63;;;21.05;100.00
9091;BME280;4581;42.416;25.598;2022-08-21T03:50:46;97740.25;;;20.97;100.00
9091;BME280;4581;42.416;25.598;2022-08-21T03:53:15;97733.34;;;20.95;100.00
9091;BME280;4581;42.416;25.598;2022-08-21T03:55:49;97752.69;;;21.10;100.00
9091;BME280;4581;42.416;25.598;2022-08-21T03:58:18;97747.53;;;21.14;100.00
9091;BME280;4581;42.416;25.598;2022-08-21T04:00:47;97756.59;;;21.14;100.00
9091;BME280;4581;42.416;25.598;2022-08-21T04:03:17;97751.69;;;21.21;100.00
9091;BME280;4581;42.416;25.598;2022-08-21T04:05:44;97741.22;;;21.13;100.00
9091;BME280;4581;42.416;25.598;2022-08-21T04:08:14;97758.03;;;21.27;100.00
9091;BME280;4581;42.416;25.598;2022-08-21T04:10:41;97726.97;;;21.16;99.66
9091;BME280;4581;42.416;25.598;2022-08-21T04:13:11;97746.25;;;21.26;99.50
9091;BME280;4581;42.416;25.598;2022-08-21T04:15:38;97747.66;;;21.29;98.72
9091;BME280;4581;42.416;25.598;2022-08-21T04:18:05;97712.75;;;21.19;98.16
9091;BME280;4581;42.416;25.598;2022-08-21T04:20:32;97756.56;;;21.51;97.49
9091;BME280;4581;42.416;25.598;2022-08-21T04:23:00;97754.44;;;21.58;97.57
9091;BME280;4581;42.416;25.598;2022-08-21T04:25:26;97726.66;;;21.50;96.57
9091;BME280;4581;42.416;25.598;2022-08-21T04:27:54;97717.03;;;21.47;94.90
9091;BME280;4581;42.416;25.598;2022-08-21T04:30:22;97725.38;;;21.62;95.05
9091;BME280;4581;42.416;25.598;2022-08-21T04:32:56;97746.06;;;21.85;93.65
9091;BME280;4581;42.416;25.598;2022-08-21T04:35:25;97721.63;;;21.78;92.57
9091;BME280;4581;42.416;25.598;2022-08-21T04:37:52;97733.72;;;21.87;91.87
9091;BME280;4581;42.416;25.598;2022-08-21T04:40:20;97753.84;;;21.98;90.85
9091;BME280;4581;42.416;25.598;2022-08-21T04:42:53;97705.44;;;21.87;91.34
9091;BME280;4581;42.416;25.598;2022-08-21T04:45:24;97709.09;;;21.98;89.04
9091;BME280;4581;42.416;25.598;2022-08-21T04:47:56;97740.81;;;22.30;88.97
9091;BME280;4581;42.416;25.598;2022-08-21T04:54:22;97744.97;;;22.53;86.82
9091;BME280;4581;42.416;25.598;2022-08-21T04:56:45;97727.38;;;22.59;87.26
9091;BME280;4581;42.416;25.598;2022-08-21T04:59:17;97703.22;;;22.46;86.67
9091;BME280;4581;42.416;25.598;2022-08-21T05:01:45;97733.50;;;22.76;85.39
9091;BME280;4581;42.416;25.598;2022-08-21T05:04:15;97717.56;;;22.73;84.90
9091;BME280;4581;42.416;25.598;2022-08-21T05:06:45;97742.31;;;22.89;83.20
9091;BME280;4581;42.416;25.598;2022-08-21T05:09:15;97740.38;;;22.99;83.24
9091;BME280;4581;42.416;25.598;2022-08-21T05:11:45;97748.66;;;23.09;82.06
9091;BME280;4581;42.416;25.598;2022-08-21T05:14:12;97714.28;;;23.02;81.83
9091;BME280;4581;42.416;25.598;2022-08-21T05:16:39;97728.28;;;23.15;82.69
9091;BME280;4581;42.416;25.598;2022-08-21T05:19:08;97753.31;;;23.39;82.59
9091;BME280;4581;42.416;25.598;2022-08-21T05:21:40;97755.81;;;23.51;82.92
9091;BME280;4581;42.416;25.598;2022-08-21T05:24:08;97725.00;;;23.44;81.08
9091;BME280;4581;42.416;25.598;2022-08-21T05:26:40;97757.44;;;23.67;80.03
9091;BME280;4581;42.416;25.598;2022-08-21T05:29:13;97761.81;;;23.73;80.18
9091;BME280;4581;42.416;25.598;2022-08-21T05:31:43;97762.91;;;23.77;79.18
9091;BME280;4581;42.416;25.598;2022-08-21T05:34:14;97769.78;;;23.85;79.69
9091;BME280;4581;42.416;25.598;2022-08-21T05:36:45;97759.59;;;23.85;79.03
9091;BME280;4581;42.416;25.598;2022-08-21T05:39:14;97767.53;;;23.92;78.04
9091;BME280;4581;42.416;25.598;2022-08-21T05:41:41;97761.25;;;23.81;77.70
9091;BME280;4581;42.416;25.598;2022-08-21T05:44:08;97765.44;;;23.58;79.33
9091;BME280;4581;42.416;25.598;2022-08-21T05:46:36;97792.63;;;23.85;78.66
9091;BME280;4581;42.416;25.598;2022-08-21T05:49:05;97789.03;;;23.95;79.75
9091;BME280;4581;42.416;25.598;2022-08-21T05:51:32;97767.59;;;23.87;82.48
9091;BME280;4581;42.416;25.598;2022-08-21T05:53:59;97762.91;;;23.87;82.53
9091;BME280;4581;42.416;25.598;2022-08-21T05:56:29;97762.34;;;23.90;81.71
9091;BME280;4581;42.416;25.598;2022-08-21T05:58:56;97746.91;;;23.89;81.57
9091;BME280;4581;42.416;25.598;2022-08-21T06:01:22;97798.59;;;24.12;80.85
9091;BME280;4581;42.416;25.598;2022-08-21T06:03:49;97755.22;;;23.74;78.92
9091;BME280;4581;42.416;25.598;2022-08-21T06:06:17;97772.81;;;23.83;77.58
9091;BME280;4581;42.416;25.598;2022-08-21T06:08:44;97770.38;;;23.51;78.26
9091;BME280;4581;42.416;25.598;2022-08-21T06:11:11;97790.47;;;23.62;78.01
9091;BME280;4581;42.416;25.598;2022-08-21T06:13:38;97748.09;;;23.48;77.23
9091;BME280;4581;42.416;25.598;2022-08-21T06:16:09;97798.66;;;23.92;79.93
9091;BME280;4581;42.416;25.598;2022-08-21T06:18:44;97787.91;;;23.96;78.84
9091;BME280;4581;42.416;25.598;2022-08-21T06:21:11;97776.06;;;23.95;77.55
9091;BME280;4581;42.416;25.598;2022-08-21T06:23:38;97778.25;;;24.03;78.60
9091;BME280;4581;42.416;25.598;2022-08-21T06:26:07;97776.56;;;24.12;78.46
9091;BME280;4581;42.416;25.598;2022-08-21T06:28:36;97769.72;;;24.15;79.87
9091;BME280;4581;42.416;25.598;2022-08-21T06:31:19;97766.94;;;24.20;78.95
9091;BME280;4581;42.416;25.598;2022-08-21T06:33:46;97753.13;;;24.25;80.28
9091;BME280;4581;42.416;25.598;2022-08-21T06:36:14;97794.03;;;24.62;77.26
9091;BME280;4581;42.416;25.598;2022-08-21T06:38:40;97775.25;;;24.64;76.16
9091;BME280;4581;42.416;25.598;2022-08-21T06:41:16;97771.94;;;24.67;71.01
9091;BME280;4581;42.416;25.598;2022-08-21T06:43:42;97766.44;;;24.67;72.06
9091;BME280;4581;42.416;25.598;2022-08-21T06:46:10;97784.50;;;24.88;73.33
9091;BME280;4581;42.416;25.598;2022-08-21T06:48:37;97762.41;;;24.98;75.42
9091;BME280;4581;42.416;25.598;2022-08-21T06:51:04;97763.59;;;25.21;74.77
9091;BME280;4581;42.416;25.598;2022-08-21T06:53:33;97774.19;;;25.43;76.31
9091;BME280;4581;42.416;25.598;2022-08-21T06:56:00;97768.16;;;25.36;75.32
9091;BME280;4581;42.416;25.598;2022-08-21T06:58:27;97774.22;;;25.38;74.85
9091;BME280;4581;42.416;25.598;2022-08-21T07:00:55;97732.41;;;25.21;75.26
9091;BME280;4581;42.416;25.598;2022-08-21T07:03:33;97790.09;;;25.56;73.43
9091;BME280;4581;42.416;25.598;2022-08-21T07:06:17;97763.97;;;25.72;73.85
9091;BME280;4581;42.416;25.598;2022-08-21T07:08:44;97757.25;;;25.83;71.36
9091;BME280;4581;42.416;25.598;2022-08-21T07:11:28;97770.53;;;26.05;70.42
9091;BME280;4581;42.416;25.598;2022-08-21T07:13:56;97769.06;;;26.13;70.72
9091;BME280;4581;42.416;25.598;2022-08-21T07:16:23;97765.22;;;26.08;72.21
9091;BME280;4581;42.416;25.598;2022-08-21T07:18:53;97745.84;;;25.90;73.93
9091;BME280;4581;42.416;25.598;2022-08-21T07:21:21;97775.34;;;25.94;74.77
9091;BME280;4581;42.416;25.598;2022-08-21T07:23:53;97779.91;;;25.80;70.15
9091;BME280;4581;42.416;25.598;2022-08-21T07:26:40;97771.88;;;25.84;69.82
9091;BME280;4581;42.416;25.598;2022-08-21T07:29:10;97742.03;;;25.57;72.73
9091;BME280;4581;42.416;25.598;2022-08-21T07:31:36;97742.59;;;25.59;72.62
9091;BME280;4581;42.416;25.598;2022-08-21T07:34:04;97729.94;;;25.53;72.82
9091;BME280;4581;42.416;25.598;2022-08-21T07:36:30;97759.00;;;25.74;71.94
9091;BME280;4581;42.416;25.598;2022-08-21T07:38:59;97748.53;;;25.71;71.79
9091;BME280;4581;42.416;25.598;2022-08-21T07:41:29;97745.81;;;25.66;71.86
9091;BME280;4581;42.416;25.598;2022-08-21T07:43:56;97746.50;;;25.53;68.67
9091;BME280;4581;42.416;25.598;2022-08-21T07:46:26;97741.56;;;25.45;68.89
9091;BME280;4581;42.416;25.598;2022-08-21T07:48:56;97724.50;;;25.43;69.97
9091;BME280;4581;42.416;25.598;2022-08-21T07:51:27;97750.63;;;25.55;68.25
9091;BME280;4581;42.416;25.598;2022-08-21T07:53:57;97724.41;;;25.53;69.85
9091;BME280;4581;42.416;25.598;2022-08-21T07:56:26;97733.34;;;25.69;71.65
9091;BME280;4581;42.416;25.598;2022-08-21T07:58:53;97706.97;;;25.57;67.71
9091;BME280;4581;42.416;25.598;2022-08-21T08:01:20;97712.53;;;25.52;65.89
9091;BME280;4581;42.416;25.598;2022-08-21T08:03:47;97705.03;;;25.58;67.87
9091;BME280;4581;42.416;25.598;2022-08-21T08:06:20;97688.72;;;25.61;68.17
9091;BME280;4581;42.416;25.598;2022-08-21T08:08:47;97689.25;;;25.64;70.01
9091;BME280;4581;42.416;25.598;2022-08-21T08:11:16;97676.44;;;25.73;70.79
9091;BME280;4581;42.416;25.598;2022-08-21T08:13:46;97711.50;;;25.96;69.39
9091;BME280;4581;42.416;25.598;2022-08-21T08:16:16;97714.22;;;26.01;68.91
9091;BME280;4581;42.416;25.598;2022-08-21T08:18:45;97713.78;;;26.13;69.14
9091;BME280;4581;42.416;25.598;2022-08-21T08:21:12;97707.06;;;26.24;70.54
9091;BME280;4581;42.416;25.598;2022-08-21T08:23:39;97694.59;;;26.26;68.66
9091;BME280;4581;42.416;25.598;2022-08-21T08:26:07;97710.72;;;26.38;69.23
9091;BME280;4581;42.416;25.598;2022-08-21T08:28:35;97699.16;;;26.36;70.61
9091;BME280;4581;42.416;25.598;2022-08-21T08:31:03;97709.56;;;26.44;68.17
9091;BME280;4581;42.416;25.598;2022-08-21T08:33:30;97705.75;;;26.40;65.80
9091;BME280;4581;42.416;25.598;2022-08-21T08:35:56;97686.38;;;26.40;66.29
9091;BME280;4581;42.416;25.598;2022-08-21T08:38:24;97699.44;;;26.53;65.72
9091;BME280;4581;42.416;25.598;2022-08-21T08:43:33;97674.50;;;26.58;69.07
9091;BME280;4581;42.416;25.598;2022-08-21T08:46:08;97697.97;;;26.79;63.64
9091;BME280;4581;42.416;25.598;2022-08-21T08:51:49;97672.03;;;26.75;62.74
9091;BME280;4581;42.416;25.598;2022-08-21T08:54:28;97669.84;;;26.91;63.81
9091;BME280;4581;42.416;25.598;2022-08-21T08:57:00;97677.91;;;27.06;61.42
9091;BME280;4581;42.416;25.598;2022-08-21T08:59:43;97696.72;;;27.23;61.56
9091;BME280;4581;42.416;25.598;2022-08-21T09:02:14;97688.41;;;27.23;62.04
9091;BME280;4581;42.416;25.598;2022-08-21T09:04:44;97677.94;;;27.20;62.59
9091;BME280;4581;42.416;25.598;2022-08-21T09:07:35;97694.28;;;27.35;61.71
9091;BME280;4581;42.416;25.598;2022-08-21T09:22:03;97675.41;;;27.37;62.14
9091;BME280;4581;42.416;25.598;2022-08-21T09:27:18;97676.56;;;27.36;62.10
9091;BME280;4581;42.416;25.598;2022-08-21T09:29:48;97661.84;;;27.22;61.35
9091;BME280;4581;42.416;25.598;2022-08-21T09:32:22;97676.22;;;27.24;60.59
9091;BME280;4581;42.416;25.598;2022-08-21T09:35:11;97680.84;;;26.96;61.33
9091;BME280;4581;42.416;25.598;2022-08-21T09:45:43;97638.53;;;26.21;66.25
9091;BME280;4581;42.416;25.598;2022-08-21T09:48:25;97666.13;;;26.26;67.79
9091;BME280;4581;42.416;25.598;2022-08-21T09:51:11;97632.78;;;25.75;72.09
9091;BME280;4581;42.416;25.598;2022-08-21T09:53:42;97657.41;;;25.71;73.89
9091;BME280;4581;42.416;25.598;2022-08-21T09:56:25;97663.84;;;25.61;74.84
9091;BME280;4581;42.416;25.598;2022-08-21T09:59:39;97658.72;;;25.50;73.56
9091;BME280;4581;42.416;25.598;2022-08-21T10:02:39;97661.94;;;25.62;76.53
9091;BME280;4581;42.416;25.598;2022-08-21T10:07:43;97641.00;;;25.56;77.47
9091;BME280;4581;42.416;25.598;2022-08-21T10:10:21;97650.66;;;25.58;79.69
9091;BME280;4581;42.416;25.598;2022-08-21T10:12:55;97633.63;;;25.46;77.34
9091;BME280;4581;42.416;25.598;2022-08-21T10:23:58;97620.72;;;25.42;75.67
9091;BME280;4581;42.416;25.598;2022-08-21T10:29:42;97650.16;;;25.51;73.62
9091;BME280;4581;42.416;25.598;2022-08-21T10:35:17;97600.50;;;25.23;76.07
9091;BME280;4581;42.416;25.598;2022-08-21T10:44:26;97609.78;;;25.32;77.87
9091;BME280;4581;42.416;25.598;2022-08-21T10:47:12;97634.50;;;25.42;78.10
9091;BME280;4581;42.416;25.598;2022-08-21T10:55:03;97627.34;;;25.41;76.98
9091;BME280;4581;42.416;25.598;2022-08-21T11:00:21;97626.63;;;25.59;77.91
9091;BME280;4581;42.416;25.598;2022-08-21T11:02:57;97611.50;;;25.51;76.59
9091;BME280;4581;42.416;25.598;2022-08-21T11:05:33;97622.16;;;25.63;76.81
9091;BME280;4581;42.416;25.598;2022-08-21T11:08:06;97578.13;;;25.48;76.60
9091;BME280;4581;42.416;25.598;2022-08-21T11:10:46;97590.72;;;25.59;75.09
9091;BME280;4581;42.416;25.598;2022-08-21T11:14:16;97616.44;;;25.78;73.83
9091;BME280;4581;42.416;25.598;2022-08-21T11:19:28;97613.13;;;25.76;76.93
9091;BME280;4581;42.416;25.598;2022-08-21T11:25:33;97608.22;;;25.73;78.58
9091;BME280;4581;42.416;25.598;2022-08-21T11:28:02;97611.56;;;25.70;77.67
9091;BME280;4581;42.416;25.598;2022-08-21T11:31:08;97603.50;;;25.74;78.28
9091;BME280;4581;42.416;25.598;2022-08-21T11:50:31;97586.84;;;25.60;75.91
9091;BME280;4581;42.416;25.598;2022-08-21T11:55:42;97576.78;;;25.45;76.93
9091;BME280;4581;42.416;25.598;2022-08-21T11:58:22;97553.47;;;25.33;79.51
9091;BME280;4581;42.416;25.598;2022-08-21T12:01:15;97583.50;;;25.63;79.12
9091;BME280;4581;42.416;25.598;2022-08-21T12:03:56;97573.50;;;25.67;80.52
9091;BME280;4581;42.416;25.598;2022-08-21T12:06:35;97586.44;;;25.90;78.34
9091;BME280;4581;42.416;25.598;2022-08-21T12:12:05;97582.72;;;26.19;76.70
9091;BME280;4581;42.416;25.598;2022-08-21T12:15:16;97571.19;;;26.35;76.68
9091;BME280;4581;42.416;25.598;2022-08-21T12:18:02;97572.09;;;26.63;75.76
9091;BME280;4581;42.416;25.598;2022-08-21T12:20:37;97554.69;;;26.76;73.02
9091;BME280;4581;42.416;25.598;2022-08-21T12:23:19;97540.84;;;26.95;74.90
9091;BME280;4581;42.416;25.598;2022-08-21T12:28:40;97554.81;;;27.31;72.75
9091;BME280;4581;42.416;25.598;2022-08-21T12:31:21;97571.75;;;27.43;70.32
9091;BME280;4581;42.416;25.598;2022-08-21T12:33:53;97545.50;;;27.27;71.28
9091;BME280;4581;42.416;25.598;2022-08-21T12:36:24;97545.06;;;27.33;68.97
9091;BME280;4581;42.416;25.598;2022-08-21T12:38:59;97572.00;;;27.60;68.40
9091;BME280;4581;42.416;25.598;2022-08-21T12:41:31;97552.69;;;27.28;65.24
9091;BME280;4581;42.416;25.598;2022-08-21T12:44:08;97578.31;;;27.61;62.25
9091;BME280;4581;42.416;25.598;2022-08-21T12:46:44;97566.94;;;27.62;62.06
9091;BME280;4581;42.416;25.598;2022-08-21T12:49:36;97589.19;;;27.57;60.25
9091;BME280;4581;42.416;25.598;2022-08-21T12:52:23;97582.13;;;27.51;61.49
9091;BME280;4581;42.416;25.598;2022-08-21T12:54:50;97584.50;;;27.71;63.65
9091;BME280;4581;42.416;25.598;2022-08-21T12:57:23;97586.00;;;27.91;64.45
9091;BME280;4581;42.416;25.598;2022-08-21T13:00:20;97597.66;;;28.02;64.19
9091;BME280;4581;42.416;25.598;2022-08-21T13:02:52;97575.31;;;27.84;65.30
9091;BME280;4581;42.416;25.598;2022-08-21T13:05:34;97595.53;;;28.12;61.15
9091;BME280;4581;42.416;25.598;2022-08-21T13:08:09;97580.81;;;28.25;61.78
9091;BME280;4581;42.416;25.598;2022-08-21T13:10:43;97586.44;;;28.34;59.58
9091;BME280;4581;42.416;25.598;2022-08-21T13:13:20;97590.19;;;28.52;59.56
9091;BME280;4581;42.416;25.598;2022-08-21T13:16:06;97590.09;;;28.65;60.08
9091;BME280;4581;42.416;25.598;2022-08-21T13:18:52;97580.75;;;28.61;60.34
9091;BME280;4581;42.416;25.598;2022-08-21T13:21:21;97576.56;;;28.64;59.55
9091;BME280;4581;42.416;25.598;2022-08-21T13:23:48;97586.06;;;28.94;60.57
9091;BME280;4581;42.416;25.598;2022-08-21T13:26:20;97587.66;;;29.08;59.70
9091;BME280;4581;42.416;25.598;2022-08-21T13:28:49;97583.38;;;29.33;58.54
9091;BME280;4581;42.416;25.598;2022-08-21T13:31:22;97584.44;;;29.54;58.58
9091;BME280;4581;42.416;25.598;2022-08-21T13:33:53;97556.75;;;29.32;57.12
9091;BME280;4581;42.416;25.598;2022-08-21T13:36:26;97580.66;;;29.50;56.02
9091;BME280;4581;42.416;25.598;2022-08-21T13:38:56;97550.22;;;29.28;54.39
9091;BME280;4581;42.416;25.598;2022-08-21T13:41:32;97548.31;;;29.15;55.10
9091;BME280;4581;42.416;25.598;2022-08-21T13:44:04;97562.97;;;28.76;55.68
9091;BME280;4581;42.416;25.598;2022-08-21T13:46:34;97560.59;;;28.92;57.13
9091;BME280;4581;42.416;25.598;2022-08-21T13:49:03;97549.03;;;28.98;58.36
9091;BME280;4581;42.416;25.598;2022-08-21T13:51:31;97528.66;;;28.72;59.21
9091;BME280;4581;42.416;25.598;2022-08-21T13:54:01;97523.19;;;28.67;59.42
9091;BME280;4581;42.416;25.598;2022-08-21T13:56:47;97512.94;;;28.67;56.52
9091;BME280;4581;42.416;25.598;2022-08-21T13:59:35;97531.50;;;28.80;55.23
9091;BME280;4581;42.416;25.598;2022-08-21T14:04:54;97530.28;;;28.73;56.35
9091;BME280;4581;42.416;25.598;2022-08-21T14:07:28;97498.88;;;28.64;56.93
9091;BME280;4581;42.416;25.598;2022-08-21T14:10:01;97516.47;;;28.81;56.30
9091;BME280;4581;42.416;25.598;2022-08-21T14:12:34;97512.69;;;28.77;55.99
9091;BME280;4581;42.416;25.598;2022-08-21T14:15:07;97497.69;;;28.56;58.01
9091;BME280;4581;42.416;25.598;2022-08-21T14:17:37;97513.13;;;28.71;61.58
9091;BME280;4581;42.416;25.598;2022-08-21T14:20:07;97512.59;;;28.91;60.61
9091;BME280;4581;42.416;25.598;2022-08-21T14:22:47;97483.66;;;28.61;56.27
9091;BME280;4581;42.416;25.598;2022-08-21T14:25:42;97519.22;;;28.81;56.77
9091;BME280;4581;42.416;25.598;2022-08-21T14:28:25;97521.34;;;28.76;57.11
9091;BME280;4581;42.416;25.598;2022-08-21T14:30:55;97508.78;;;28.56;60.90
9091;BME280;4581;42.416;25.598;2022-08-21T14:33:29;97498.22;;;28.67;58.00
9091;BME280;4581;42.416;25.598;2022-08-21T14:35:58;97494.59;;;28.58;58.99
9091;BME280;4581;42.416;25.598;2022-08-21T14:38:26;97517.53;;;28.50;60.51
9091;BME280;4581;42.416;25.598;2022-08-21T14:41:00;97509.22;;;28.50;60.82
9091;BME280;4581;42.416;25.598;2022-08-21T14:43:31;97486.34;;;28.22;63.01
9091;BME280;4581;42.416;25.598;2022-08-21T14:45:58;97461.84;;;27.79;64.67
9091;BME280;4581;42.416;25.598;2022-08-21T14:48:27;97490.97;;;27.77;67.86
9091;BME280;4581;42.416;25.598;2022-08-21T14:50:54;97481.34;;;27.88;66.23
9091;BME280;4581;42.416;25.598;2022-08-21T14:53:25;97481.75;;;27.81;66.20
9091;BME280;4581;42.416;25.598;2022-08-21T14:55:54;97499.34;;;27.99;68.93
9091;BME280;4581;42.416;25.598;2022-08-21T14:58:45;97496.38;;;27.96;69.76
9091;BME280;4581;42.416;25.598;2022-08-21T15:01:14;97491.44;;;27.92;70.61
9091;BME280;4581;42.416;25.598;2022-08-21T15:03:43;97500.47;;;27.98;65.97
9091;BME280;4581;42.416;25.598;2022-08-21T15:06:10;97497.59;;;28.03;65.86
9091;BME280;4581;42.416;25.598;2022-08-21T15:08:38;97478.00;;;28.00;64.42
9091;BME280;4581;42.416;25.598;2022-08-21T15:11:06;97499.44;;;28.08;66.16
9091;BME280;4581;42.416;25.598;2022-08-21T15:13:42;97472.56;;;27.95;64.81
9091;BME280;4581;42.416;25.598;2022-08-21T15:16:11;97484.31;;;28.14;65.64